createdAt,value
2023-04-08T00:00:01.865Z,4.8947
2023-04-08T00:01:02.678Z,4.8889
2023-04-08T00:02:03.532Z,4.8444
2023-04-08T00:03:04.478Z,4.8379
2023-04-08T00:04:05.546Z,4.8367
2023-04-08T00:05:06.479Z,4.8568
2023-04-08T00:06:07.279Z,4.8875
2023-04-08T00:07:08.043Z,4.8513
2023-04-08T00:08:08.819Z,4.8799
2023-04-08T00:09:09.552Z,4.9750
2023-04-08T00:10:10.320Z,4.9295
2023-04-08T00:11:11.058Z,4.9348
2023-04-08T00:12:11.833Z,4.9406
2023-04-08T00:13:12.607Z,4.9383
2023-04-08T00:14:13.364Z,4.9249
2023-04-08T00:15:14.124Z,4.9195
2023-04-08T00:16:14.888Z,4.9200
2023-04-08T00:17:15.639Z,4.8916
2023-04-08T00:18:16.528Z,4.8880
2023-04-08T00:19:17.268Z,4.8357
2023-04-08T00:20:18.002Z,4.8441
2023-04-08T00:21:18.775Z,4.8580
2023-04-08T00:22:19.497Z,4.8468
2023-04-08T00:23:20.208Z,4.8786
2023-04-08T00:24:20.922Z,4.8939
2023-04-08T00:25:24.104Z,4.9422
2023-04-08T00:26:23.635Z,4.9700
2023-04-08T00:27:24.363Z,5.0210
2023-04-08T00:28:25.097Z,5.0803
2023-04-08T00:29:25.815Z,5.0183
2023-04-08T00:30:26.570Z,4.9932
2023-04-08T00:31:27.350Z,4.9925
2023-04-08T00:32:28.137Z,5.0189
2023-04-08T00:33:28.858Z,5.0768
2023-04-08T00:34:29.646Z,5.1093
2023-04-08T00:35:30.397Z,5.1368
2023-04-08T00:36:31.104Z,5.0921
2023-04-08T00:37:31.881Z,5.0199
2023-04-08T00:38:32.636Z,4.9507
2023-04-08T00:39:33.460Z,4.9215
2023-04-08T00:40:34.265Z,4.8677
2023-04-08T00:41:35.586Z,4.8554
2023-04-08T00:42:36.386Z,4.8520
2023-04-08T00:43:37.134Z,4.8164
2023-04-08T00:44:37.811Z,4.8515
2023-04-08T00:45:38.566Z,4.8835
2023-04-08T00:46:39.359Z,4.8575
2023-04-08T00:47:40.280Z,4.8468
2023-04-08T00:48:41.087Z,4.9242
2023-04-08T00:49:41.809Z,4.9652
2023-04-08T00:50:42.575Z,4.9831
2023-04-08T00:51:43.339Z,5.0461
2023-04-08T00:52:44.106Z,5.0411
2023-04-08T00:53:44.868Z,5.0234
2023-04-08T00:54:45.609Z,5.0838
2023-04-08T00:55:46.492Z,4.9639
2023-04-08T00:56:47.260Z,5.0187
2023-04-08T00:57:48.006Z,5.0723
2023-04-08T00:58:48.989Z,5.0500
2023-04-08T00:59:49.953Z,5.0498
2023-04-08T01:00:50.751Z,4.9925
2023-04-08T01:01:51.599Z,4.9382
2023-04-08T01:02:52.616Z,4.9153
2023-04-08T01:03:53.566Z,4.8750
2023-04-08T01:04:54.322Z,4.9098
2023-04-08T01:05:55.062Z,4.9377
2023-04-08T01:06:55.804Z,4.8898
2023-04-08T01:07:56.579Z,4.9069
2023-04-08T01:08:57.243Z,4.9139
2023-04-08T01:09:58.040Z,4.9229
2023-04-08T01:10:58.800Z,4.9168
2023-04-08T01:11:59.541Z,4.9181
2023-04-08T01:13:00.307Z,4.9739
2023-04-08T01:14:01.019Z,4.9723
2023-04-08T01:15:01.775Z,4.9441
2023-04-08T01:16:02.900Z,4.9636
2023-04-08T01:17:03.742Z,4.9917
2023-04-08T01:18:04.519Z,4.9721
2023-04-08T01:19:05.299Z,4.9851
2023-04-08T01:20:06.091Z,5.0323
2023-04-08T01:21:06.264Z,5.0276
2023-04-08T01:22:07.049Z,5.0523
2023-04-08T01:23:07.874Z,5.0293
2023-04-08T01:24:08.621Z,5.0213
2023-04-08T01:25:09.488Z,5.0938
2023-04-08T01:26:10.216Z,5.1119
2023-04-08T01:27:10.969Z,5.0745
2023-04-08T01:28:11.793Z,5.0710
2023-04-08T01:29:12.577Z,5.1057
2023-04-08T01:30:13.418Z,5.1088
2023-04-08T01:31:14.224Z,5.0895
2023-04-08T01:32:15.177Z,5.0969
2023-04-08T01:33:15.978Z,5.0975
2023-04-08T01:34:16.739Z,5.1074
2023-04-08T01:35:17.553Z,5.1264
2023-04-08T01:36:18.395Z,5.1142
2023-04-08T01:37:19.189Z,5.1036
2023-04-08T01:38:20.047Z,5.1010
2023-04-08T01:39:20.844Z,5.1160
2023-04-08T01:40:21.718Z,5.1733
2023-04-08T01:41:22.495Z,5.1699
2023-04-08T01:42:23.268Z,5.1845
2023-04-08T01:43:24.073Z,5.2171
2023-04-08T01:44:24.819Z,5.2347
2023-04-08T01:45:25.627Z,5.2862
2023-04-08T01:46:26.496Z,5.2739
2023-04-08T01:47:27.279Z,5.2074
2023-04-08T01:48:28.083Z,5.2207
2023-04-08T01:49:28.877Z,5.1205
2023-04-08T01:50:29.630Z,5.1271
2023-04-08T01:51:30.467Z,5.1207
2023-04-08T01:52:31.294Z,5.0830
2023-04-08T01:53:32.080Z,5.0263
2023-04-08T01:54:32.929Z,5.0556
2023-04-08T01:55:33.956Z,5.1078
2023-04-08T01:56:34.705Z,5.1084
2023-04-08T01:57:35.467Z,5.0570
2023-04-08T01:58:36.198Z,5.0927
2023-04-08T01:59:38.028Z,5.0757
2023-04-08T02:00:38.779Z,5.0808
2023-04-08T02:01:39.691Z,5.0375
2023-04-08T02:02:40.729Z,4.9479
2023-04-08T02:03:41.844Z,4.9172
2023-04-08T02:04:42.775Z,5.0024
2023-04-08T02:05:43.705Z,4.9988
2023-04-08T02:06:44.543Z,5.0021
2023-04-08T02:07:45.394Z,5.0246
2023-04-08T02:08:46.203Z,5.0630
2023-04-08T02:09:47.033Z,5.0829
2023-04-08T02:10:47.850Z,5.0755
2023-04-08T02:11:48.697Z,5.0591
2023-04-08T02:12:49.496Z,4.9965
2023-04-08T02:13:50.314Z,5.0752
2023-04-08T02:14:51.127Z,5.0723
2023-04-08T02:15:51.983Z,5.0593
2023-04-08T02:16:52.767Z,5.0834
2023-04-08T02:17:53.576Z,5.0608
2023-04-08T02:18:54.413Z,5.0739
2023-04-08T02:19:55.260Z,5.0664
2023-04-08T02:20:56.033Z,5.0455
2023-04-08T02:21:56.885Z,5.0693
2023-04-08T02:22:57.757Z,5.0776
2023-04-08T02:23:58.552Z,5.0796
2023-04-08T02:24:59.340Z,5.1305
2023-04-08T02:26:00.131Z,5.1477
2023-04-08T02:27:00.943Z,5.1723
2023-04-08T02:28:01.729Z,5.1814
2023-04-08T02:29:02.485Z,5.1909
2023-04-08T02:30:03.406Z,5.1579
2023-04-08T02:31:04.248Z,5.2210
2023-04-08T02:32:05.038Z,5.2435
2023-04-08T02:33:05.828Z,5.2407
2023-04-08T02:34:06.722Z,5.2645
2023-04-08T02:35:07.499Z,5.2844
2023-04-08T02:36:08.394Z,5.2741
2023-04-08T02:37:09.164Z,5.3092
2023-04-08T02:38:09.935Z,5.2797
2023-04-08T02:39:10.743Z,5.2213
2023-04-08T02:40:11.543Z,5.2437
2023-04-08T02:41:12.431Z,5.2055
2023-04-08T02:42:13.208Z,5.1971
2023-04-08T02:43:14.070Z,5.2366
2023-04-08T02:44:14.875Z,5.2406
2023-04-08T02:45:15.684Z,5.2692
2023-04-08T02:46:16.655Z,5.2668
2023-04-08T02:47:17.434Z,5.2488
2023-04-08T02:48:18.269Z,5.2602
2023-04-08T02:49:19.005Z,5.2489
2023-04-08T02:50:19.901Z,5.1193
2023-04-08T02:51:20.683Z,5.1725
2023-04-08T02:52:21.473Z,5.1626
2023-04-08T02:53:22.225Z,5.1728
2023-04-08T02:54:23.123Z,5.1973
2023-04-08T02:55:23.934Z,5.1808
2023-04-08T02:56:24.742Z,5.2134
2023-04-08T02:57:25.546Z,5.2444
2023-04-08T02:58:26.339Z,5.2586
2023-04-08T02:59:27.052Z,5.2703
2023-04-08T03:00:28.054Z,5.2423
2023-04-08T03:01:28.906Z,5.2882
2023-04-08T03:02:29.857Z,5.2579
2023-04-08T03:03:30.860Z,5.3185
2023-04-08T03:04:31.694Z,5.3073
2023-04-08T03:05:32.480Z,5.3047
2023-04-08T03:06:33.344Z,5.4323
2023-04-08T03:07:34.151Z,5.5264
2023-04-08T03:08:34.981Z,5.6031
2023-04-08T03:09:35.808Z,5.5738
2023-04-08T03:10:36.666Z,5.5088
2023-04-08T03:11:37.488Z,5.4166
2023-04-08T03:12:38.290Z,5.3774
2023-04-08T03:13:39.122Z,5.2459
2023-04-08T03:14:39.923Z,5.2634
2023-04-08T03:15:40.729Z,5.2283
2023-04-08T03:16:41.566Z,5.2896
2023-04-08T03:17:42.479Z,5.3653
2023-04-08T03:18:43.245Z,5.2594
2023-04-08T03:19:44.078Z,5.2444
2023-04-08T03:20:44.944Z,5.2608
2023-04-08T03:21:45.797Z,5.1447
2023-04-08T03:22:46.591Z,5.2174
2023-04-08T03:23:47.435Z,5.2405
2023-04-08T03:24:48.275Z,5.1769
2023-04-08T03:25:49.054Z,5.2044
2023-04-08T03:26:49.852Z,5.2307
2023-04-08T03:27:50.638Z,5.2121
2023-04-08T03:28:51.748Z,5.2092
2023-04-08T03:29:52.758Z,5.1622
2023-04-08T03:30:53.555Z,5.0495
2023-04-08T03:31:54.439Z,5.1047
2023-04-08T03:32:55.228Z,5.1148
2023-04-08T03:33:56.081Z,5.1118
2023-04-08T03:34:56.902Z,5.1116
2023-04-08T03:35:58.049Z,5.1067
2023-04-08T03:36:58.848Z,5.1039
2023-04-08T03:37:59.623Z,5.1249
2023-04-08T03:39:00.484Z,5.1173
2023-04-08T03:40:01.305Z,5.1390
2023-04-08T03:41:02.119Z,5.1158
2023-04-08T03:42:02.909Z,5.0610
2023-04-08T03:43:03.699Z,5.1163
2023-04-08T03:44:04.497Z,5.0645
2023-04-08T03:45:05.274Z,4.9966
2023-04-08T03:46:06.103Z,4.9967
2023-04-08T03:47:06.929Z,5.0817
2023-04-08T03:48:07.775Z,4.9970
2023-04-08T03:49:08.653Z,5.0642
2023-04-08T03:50:09.384Z,5.0355
2023-04-08T03:51:10.183Z,5.0334
2023-04-08T03:52:10.963Z,4.9969
2023-04-08T03:53:11.826Z,4.9582
2023-04-08T03:54:12.617Z,4.9841
2023-04-08T03:55:13.413Z,4.9550
2023-04-08T03:56:14.215Z,5.0037
2023-04-08T03:57:14.993Z,5.0167
2023-04-08T03:58:15.798Z,4.9276
2023-04-08T03:59:16.633Z,4.8712
2023-04-08T04:00:17.417Z,4.8770
2023-04-08T04:01:18.208Z,4.9349
2023-04-08T04:02:19.073Z,4.9805
2023-04-08T04:03:19.972Z,4.9554
2023-04-08T04:04:21.164Z,4.9626
2023-04-08T04:05:22.506Z,4.9266
2023-04-08T04:06:23.306Z,4.7841
2023-04-08T04:07:24.174Z,4.8121
2023-04-08T04:08:25.022Z,4.8279
2023-04-08T04:09:25.781Z,4.8840
2023-04-08T04:10:26.575Z,4.8140
2023-04-08T04:11:27.384Z,4.8082
2023-04-08T04:12:28.194Z,4.9120
2023-04-08T04:13:29.008Z,4.8839
2023-04-08T04:14:29.846Z,4.8995
2023-04-08T04:15:30.658Z,4.9437
2023-04-08T04:16:32.996Z,4.9468
2023-04-08T04:17:31.556Z,4.8644
2023-04-08T04:18:32.479Z,4.8566
2023-04-08T04:19:33.277Z,4.8674
2023-04-08T04:20:34.087Z,4.9089
2023-04-08T04:21:34.904Z,4.8988
2023-04-08T04:22:35.710Z,4.9061
2023-04-08T04:23:36.479Z,4.8851
2023-04-08T04:24:37.326Z,4.8821
2023-04-08T04:25:38.083Z,4.9556
2023-04-08T04:26:38.937Z,5.0098
2023-04-08T04:27:39.726Z,4.9763
2023-04-08T04:28:40.507Z,4.9960
2023-04-08T04:29:41.308Z,4.9797
2023-04-08T04:30:42.112Z,5.0234
2023-04-08T04:31:42.949Z,4.9419
2023-04-08T04:32:43.775Z,4.9461
2023-04-08T04:33:44.608Z,4.9832
2023-04-08T04:34:45.377Z,4.9878
2023-04-08T04:35:46.232Z,4.9636
2023-04-08T04:36:46.994Z,4.9653
2023-04-08T04:37:47.814Z,4.9201
2023-04-08T04:38:50.224Z,4.9468
2023-04-08T04:39:49.116Z,4.9030
2023-04-08T04:40:49.948Z,4.9001
2023-04-08T04:41:50.807Z,4.8674
2023-04-08T04:42:51.609Z,4.9367
2023-04-08T04:43:52.379Z,4.8999
2023-04-08T04:44:53.246Z,4.9170
2023-04-08T04:45:54.038Z,4.9254
2023-04-08T04:46:54.997Z,4.9384
2023-04-08T04:47:55.792Z,5.0036
2023-04-08T04:48:56.587Z,4.9919
2023-04-08T04:49:57.400Z,4.8974
2023-04-08T04:50:58.239Z,4.8612
2023-04-08T04:51:59.033Z,4.8802
2023-04-08T04:52:59.830Z,4.9623
2023-04-08T04:54:00.574Z,4.8850
2023-04-08T04:55:01.439Z,4.8723
2023-04-08T04:56:02.446Z,4.7923
2023-04-08T04:57:03.287Z,4.7934
2023-04-08T04:58:04.111Z,4.7375
2023-04-08T04:59:04.904Z,4.8025
2023-04-08T05:00:05.904Z,4.8309
2023-04-08T05:01:06.750Z,4.8648
2023-04-08T05:02:07.652Z,4.8367
2023-04-08T05:03:08.711Z,4.8823
2023-04-08T05:04:09.555Z,4.8604
2023-04-08T05:05:10.372Z,4.8565
2023-04-08T05:06:11.384Z,4.8773
2023-04-08T05:07:12.177Z,4.8358
2023-04-08T05:08:12.962Z,4.8948
2023-04-08T05:09:13.790Z,4.7915
2023-04-08T05:10:14.642Z,4.7400
2023-04-08T05:11:15.405Z,4.8368
2023-04-08T05:12:16.223Z,4.7948
2023-04-08T05:13:17.020Z,4.8133
2023-04-08T05:14:17.775Z,4.8477
2023-04-08T05:15:18.603Z,4.8693
2023-04-08T05:16:19.485Z,4.8445
2023-04-08T05:17:20.315Z,4.9319
2023-04-08T05:18:21.146Z,4.9632
2023-04-08T05:19:22.003Z,4.8696
2023-04-08T05:20:22.799Z,4.8879
2023-04-08T05:21:23.584Z,4.8169
2023-04-08T05:22:24.471Z,4.7972
2023-04-08T05:23:25.262Z,4.8063
2023-04-08T05:24:26.038Z,4.7755
2023-04-08T05:25:26.922Z,4.8835
2023-04-08T05:26:27.728Z,4.8508
2023-04-08T05:27:28.506Z,4.8662
2023-04-08T05:28:29.339Z,4.8598
2023-04-08T05:29:30.160Z,4.8231
2023-04-08T05:30:30.993Z,4.8262
2023-04-08T05:31:31.906Z,4.8168
2023-04-08T05:32:32.846Z,4.8066
2023-04-08T05:33:33.721Z,4.8862
2023-04-08T05:34:34.485Z,5.0069
2023-04-08T05:35:35.305Z,5.0452
2023-04-08T05:36:36.057Z,5.0295
2023-04-08T05:37:36.814Z,4.9254
2023-04-08T05:38:37.640Z,4.9357
2023-04-08T05:39:38.502Z,4.9774
2023-04-08T05:40:39.290Z,4.9266
2023-04-08T05:41:40.096Z,5.0061
2023-04-08T05:42:40.911Z,4.9624
2023-04-08T05:43:41.736Z,4.9823
2023-04-08T05:44:42.516Z,5.0312
2023-04-08T05:45:43.376Z,4.9706
2023-04-08T05:46:44.283Z,4.9721
2023-04-08T05:47:45.165Z,5.0108
2023-04-08T05:48:45.967Z,5.0057
2023-04-08T05:49:46.796Z,5.0633
2023-04-08T05:50:47.666Z,5.1134
2023-04-08T05:51:48.404Z,5.0518
2023-04-08T05:52:49.197Z,5.0939
2023-04-08T05:53:49.947Z,5.0980
2023-04-08T05:54:50.779Z,5.1331
2023-04-08T05:55:51.563Z,5.1740
2023-04-08T05:56:52.416Z,5.1757
2023-04-08T05:57:53.191Z,5.1660
2023-04-08T05:58:53.976Z,5.1834
2023-04-08T05:59:54.868Z,5.2343
2023-04-08T06:00:55.972Z,5.1908
2023-04-08T06:01:56.761Z,5.0724
2023-04-08T06:02:57.904Z,5.1501
2023-04-08T06:03:59.134Z,5.1111
2023-04-08T06:05:00.426Z,5.1504
2023-04-08T06:06:01.272Z,5.2635
2023-04-08T06:07:02.099Z,5.2612
2023-04-08T06:08:02.951Z,5.2537
2023-04-08T06:09:03.803Z,5.2179
2023-04-08T06:10:04.710Z,5.1892
2023-04-08T06:11:05.525Z,5.1869
2023-04-08T06:12:06.592Z,5.2302
2023-04-08T06:13:07.394Z,5.2487
2023-04-08T06:14:08.221Z,5.2512
2023-04-08T06:15:09.102Z,5.2044
2023-04-08T06:16:09.956Z,5.2678
2023-04-08T06:17:10.772Z,5.3265
2023-04-08T06:18:11.757Z,5.3142
2023-04-08T06:19:12.584Z,5.3108
2023-04-08T06:20:13.437Z,5.3376
2023-04-08T06:21:14.252Z,5.3547
2023-04-08T06:22:15.084Z,5.4011
2023-04-08T06:23:15.915Z,5.3962
2023-04-08T06:24:16.847Z,5.3798
2023-04-08T06:25:17.671Z,5.2649
2023-04-08T06:26:18.536Z,5.3793
2023-04-08T06:27:19.347Z,5.4749
2023-04-08T06:28:20.228Z,5.4456
2023-04-08T06:29:21.977Z,5.4698
2023-04-08T06:30:22.856Z,5.3741
2023-04-08T06:31:23.700Z,5.4008
2023-04-08T06:32:24.608Z,5.2939
2023-04-08T06:33:25.483Z,5.4638
2023-04-08T06:34:26.352Z,5.3321
2023-04-08T06:35:27.970Z,5.3547
2023-04-08T06:36:29.210Z,5.3102
2023-04-08T06:37:30.048Z,5.2814
2023-04-08T06:38:30.922Z,5.2620
2023-04-08T06:39:31.746Z,5.3322
2023-04-08T06:40:32.611Z,5.3255
2023-04-08T06:41:33.486Z,5.2831
2023-04-08T06:42:34.294Z,5.2807
2023-04-08T06:43:35.220Z,5.3270
2023-04-08T06:44:36.305Z,5.3170
2023-04-08T06:45:37.155Z,5.2808
2023-04-08T06:46:38.016Z,5.3251
2023-04-08T06:47:38.921Z,5.3515
2023-04-08T06:48:39.792Z,5.3874
2023-04-08T06:49:40.628Z,5.5168
2023-04-08T06:50:41.495Z,5.5562
2023-04-08T06:51:42.347Z,5.5999
2023-04-08T06:52:43.179Z,5.6047
2023-04-08T06:53:44.045Z,5.7198
2023-04-08T06:54:44.889Z,5.7868
2023-04-08T06:55:45.685Z,5.6303
2023-04-08T06:56:46.544Z,5.6515
2023-04-08T06:57:47.421Z,5.7000
2023-04-08T06:58:48.274Z,5.6742
2023-04-08T06:59:49.206Z,5.7372
2023-04-08T07:00:50.070Z,5.8226
2023-04-08T07:01:51.347Z,5.8292
2023-04-08T07:02:52.519Z,5.8588
2023-04-08T07:03:53.492Z,5.8680
2023-04-08T07:04:54.437Z,5.8294
2023-04-08T07:05:55.239Z,5.8353
2023-04-08T07:06:56.093Z,5.8987
2023-04-08T07:07:56.961Z,5.7734
2023-04-08T07:08:57.798Z,5.8974
2023-04-08T07:09:58.638Z,5.9272
2023-04-08T07:10:59.607Z,6.0281
2023-04-08T07:12:00.465Z,5.9719
2023-04-08T07:13:01.351Z,6.1288
2023-04-08T07:14:02.157Z,6.0074
2023-04-08T07:15:03.021Z,6.0044
2023-04-08T07:16:03.803Z,5.9840
2023-04-08T07:17:04.749Z,6.0846
2023-04-08T07:18:05.671Z,6.1318
2023-04-08T07:19:06.512Z,6.1289
2023-04-08T07:20:07.367Z,6.2517
2023-04-08T07:21:08.195Z,6.2669
2023-04-08T07:22:09.035Z,6.2735
2023-04-08T07:23:09.859Z,6.4251
2023-04-08T07:24:10.738Z,6.3148
2023-04-08T07:25:11.738Z,6.2538
2023-04-08T07:26:12.618Z,6.0562
2023-04-08T07:27:13.434Z,6.3049
2023-04-08T07:28:14.265Z,6.2947
2023-04-08T07:29:15.114Z,6.3405
2023-04-08T07:30:15.958Z,6.1999
2023-04-08T07:31:16.898Z,6.2166
2023-04-08T07:32:17.719Z,6.1789
2023-04-08T07:33:18.576Z,6.2636
2023-04-08T07:34:19.399Z,6.3798
2023-04-08T07:35:20.515Z,6.3607
2023-04-08T07:36:21.392Z,6.4099
2023-04-08T07:37:22.246Z,6.4883
2023-04-08T07:38:23.079Z,6.4433
2023-04-08T07:39:23.954Z,6.4998
2023-04-08T07:40:24.887Z,6.1740
2023-04-08T07:41:25.876Z,6.3670
2023-04-08T07:42:26.783Z,6.1686
2023-04-08T07:43:27.660Z,6.0606
2023-04-08T07:44:28.569Z,6.0386
2023-04-08T07:45:29.412Z,6.0882
2023-04-08T07:46:30.306Z,6.3004
2023-04-08T07:47:31.112Z,6.3506
2023-04-08T07:48:31.941Z,6.3007
2023-04-08T07:49:32.769Z,6.2752
2023-04-08T07:50:33.558Z,6.4799
2023-04-08T07:51:34.401Z,6.4957
2023-04-08T07:52:35.230Z,6.6003
2023-04-08T07:53:36.073Z,6.5877
2023-04-08T07:54:36.894Z,6.5988
2023-04-08T07:55:37.734Z,6.6977
2023-04-08T07:56:38.582Z,6.8237
2023-04-08T07:57:39.462Z,6.8558
2023-04-08T07:58:40.490Z,6.9041
2023-04-08T07:59:41.396Z,6.8873
2023-04-08T08:00:42.243Z,6.8464
2023-04-08T08:01:43.203Z,6.8523
2023-04-08T08:02:44.055Z,6.8507
2023-04-08T08:03:45.342Z,6.7260
2023-04-08T08:04:46.652Z,6.8922
2023-04-08T08:05:47.510Z,7.0593
2023-04-08T08:06:48.422Z,7.0539
2023-04-08T08:07:49.255Z,6.9807
2023-04-08T08:08:50.077Z,7.0523
2023-04-08T08:09:50.889Z,7.0158
2023-04-08T08:10:51.732Z,6.9905
2023-04-08T08:11:52.574Z,7.0253
2023-04-08T08:12:53.442Z,7.1246
2023-04-08T08:13:54.254Z,7.0843
2023-04-08T08:14:55.111Z,7.0765
2023-04-08T08:15:56.041Z,7.1532
2023-04-08T08:16:57.087Z,7.1334
2023-04-08T08:17:57.943Z,7.0843
2023-04-08T08:18:58.724Z,7.2037
2023-04-08T08:19:59.649Z,7.4686
2023-04-08T08:21:00.465Z,7.7212
2023-04-08T08:22:01.345Z,7.5968
2023-04-08T08:23:02.180Z,7.3521
2023-04-08T08:24:03.012Z,7.5367
2023-04-08T08:25:03.875Z,7.5965
2023-04-08T08:26:04.723Z,7.6402
2023-04-08T08:27:05.522Z,7.5102
2023-04-08T08:28:06.331Z,7.3835
2023-04-08T08:29:07.369Z,7.4860
2023-04-08T08:30:08.180Z,7.5070
2023-04-08T08:31:09.058Z,7.4219
2023-04-08T08:32:09.952Z,7.5317
2023-04-08T08:33:10.866Z,7.8052
2023-04-08T08:34:11.765Z,7.6499
2023-04-08T08:35:12.638Z,7.6849
2023-04-08T08:36:13.427Z,7.5980
2023-04-08T08:37:14.324Z,7.3591
2023-04-08T08:38:15.164Z,7.6811
2023-04-08T08:39:15.984Z,7.5638
2023-04-08T08:40:16.804Z,7.5711
2023-04-08T08:41:17.604Z,7.5097
2023-04-08T08:42:18.464Z,7.3300
2023-04-08T08:43:19.313Z,7.3423
2023-04-08T08:44:20.121Z,7.5813
2023-04-08T08:45:20.903Z,7.3341
2023-04-08T08:46:21.862Z,7.5236
2023-04-08T08:47:22.697Z,7.6389
2023-04-08T08:48:23.468Z,7.9695
2023-04-08T08:49:24.250Z,8.1552
2023-04-08T08:50:25.039Z,8.2370
2023-04-08T08:51:25.848Z,7.8249
2023-04-08T08:52:26.653Z,7.8925
2023-04-08T08:53:27.472Z,7.9873
2023-04-08T08:54:28.326Z,7.9017
2023-04-08T08:55:50.339Z,7.8459
2023-04-08T08:56:30.990Z,8.1996
2023-04-08T08:57:31.909Z,8.2323
2023-04-08T08:58:32.699Z,8.3081
2023-04-08T08:59:33.491Z,8.5581
2023-04-08T09:00:34.847Z,8.6685
2023-04-08T09:01:36.070Z,8.4021
2023-04-08T09:02:37.041Z,7.7566
2023-04-08T09:03:38.101Z,7.8530
2023-04-08T09:04:39.552Z,8.4019
2023-04-08T09:05:40.970Z,8.2041
2023-04-08T09:06:41.861Z,8.2460
2023-04-08T09:07:42.672Z,8.5514
2023-04-08T09:08:43.484Z,8.4023
2023-04-08T09:09:44.266Z,8.5994
2023-04-08T09:10:45.109Z,8.7219
2023-04-08T09:11:45.957Z,8.9351
2023-04-08T09:12:46.858Z,8.7028
2023-04-08T09:13:47.812Z,8.6648
2023-04-08T09:14:48.676Z,8.7994
2023-04-08T09:15:49.597Z,8.5222
2023-04-08T09:16:50.480Z,8.8183
2023-04-08T09:17:51.307Z,8.6317
2023-04-08T09:18:52.078Z,8.4455
2023-04-08T09:19:52.933Z,8.4905
2023-04-08T09:20:53.717Z,8.6657
2023-04-08T09:21:54.560Z,8.7686
2023-04-08T09:22:55.377Z,8.6113
2023-04-08T09:23:56.270Z,8.6573
2023-04-08T09:24:57.013Z,8.5417
2023-04-08T09:25:57.840Z,8.6007
2023-04-08T09:26:58.645Z,8.3175
2023-04-08T09:27:59.458Z,8.3035
2023-04-08T09:29:03.975Z,8.5408
2023-04-08T09:30:01.929Z,8.5310
2023-04-08T09:31:02.692Z,8.5532
2023-04-08T09:32:03.625Z,8.7075
2023-04-08T09:33:04.681Z,8.6071
2023-04-08T09:34:05.507Z,8.5465
2023-04-08T09:35:07.057Z,8.6153
2023-04-08T09:36:08.134Z,8.7159
2023-04-08T09:37:08.902Z,8.6326
2023-04-08T09:38:09.705Z,8.5117
2023-04-08T09:39:10.650Z,8.7437
2023-04-08T09:40:12.594Z,8.6904
2023-04-08T09:41:12.267Z,8.7192
2023-04-08T09:42:13.080Z,8.5451
2023-04-08T09:43:13.891Z,8.4523
2023-04-08T09:44:14.704Z,8.6805
2023-04-08T09:45:15.470Z,8.5864
2023-04-08T09:46:16.421Z,8.4777
2023-04-08T09:47:17.303Z,8.5674
2023-04-08T09:48:18.072Z,8.6520
2023-04-08T09:49:18.880Z,8.6583
2023-04-08T09:50:19.680Z,8.6214
2023-04-08T09:51:20.530Z,8.4535
2023-04-08T09:52:21.348Z,8.6960
2023-04-08T09:53:23.289Z,8.3615
2023-04-08T09:54:24.441Z,8.3084
2023-04-08T09:55:25.317Z,8.3529
2023-04-08T09:56:26.227Z,8.5227
2023-04-08T09:57:27.056Z,8.4744
2023-04-08T09:58:27.877Z,8.5283
2023-04-08T09:59:28.761Z,8.4514
2023-04-08T10:00:29.710Z,8.4359
2023-04-08T10:01:30.613Z,8.4600
2023-04-08T10:02:31.634Z,8.2600
2023-04-08T10:03:32.760Z,8.2968
2023-04-08T10:04:33.785Z,8.2306
2023-04-08T10:05:34.620Z,8.4971
2023-04-08T10:06:35.432Z,8.4777
2023-04-08T10:07:36.250Z,8.5193
2023-04-08T10:08:37.135Z,8.5040
2023-04-08T10:09:37.884Z,8.5104
2023-04-08T10:10:38.716Z,8.4459
2023-04-08T10:11:39.535Z,8.5568
2023-04-08T10:12:40.342Z,8.4890
2023-04-08T10:13:41.164Z,8.5146
2023-04-08T10:14:42.032Z,8.6487
2023-04-08T10:15:42.823Z,9.0401
2023-04-08T10:16:43.664Z,9.1147
2023-04-08T10:17:45.808Z,9.1384
2023-04-08T10:18:46.618Z,9.2645
2023-04-08T10:19:47.605Z,9.4002
2023-04-08T10:20:48.611Z,9.4618
2023-04-08T10:21:49.464Z,9.3030
2023-04-08T10:22:50.335Z,9.5994
2023-04-08T10:23:51.244Z,9.7411
2023-04-08T10:24:52.028Z,9.6412
2023-04-08T10:25:52.839Z,9.7867
2023-04-08T10:26:53.643Z,9.9331
2023-04-08T10:27:54.489Z,10.2310
2023-04-08T10:28:55.325Z,10.2069
2023-04-08T10:29:56.141Z,10.0454
2023-04-08T10:30:56.952Z,9.9290
2023-04-08T10:31:57.797Z,9.8358
2023-04-08T10:32:58.706Z,9.8262
2023-04-08T10:33:59.511Z,9.9588
2023-04-08T10:35:00.329Z,10.3109
2023-04-08T10:36:01.152Z,10.3166
2023-04-08T10:37:02.042Z,10.2122
2023-04-08T10:38:03.040Z,10.3897
2023-04-08T10:39:03.883Z,10.1988
2023-04-08T10:40:04.730Z,10.0050
2023-04-08T10:41:05.596Z,10.3738
2023-04-08T10:42:06.480Z,10.2231
2023-04-08T10:43:07.355Z,10.1490
2023-04-08T10:44:08.223Z,9.8546
2023-04-08T10:45:09.070Z,9.6183
2023-04-08T10:46:10.002Z,9.7251
2023-04-08T10:47:10.848Z,9.7876
2023-04-08T10:48:11.717Z,9.4950
2023-04-08T10:49:12.568Z,9.2803
2023-04-08T10:50:13.498Z,9.5438
2023-04-08T10:51:14.430Z,9.6567
2023-04-08T10:52:15.288Z,9.6633
2023-04-08T10:53:16.124Z,9.8119
2023-04-08T10:54:17.025Z,9.7207
2023-04-08T10:55:17.851Z,9.9057
2023-04-08T10:56:18.705Z,9.8227
2023-04-08T10:57:19.520Z,9.8879
2023-04-08T10:58:20.388Z,9.9165
2023-04-08T10:59:21.260Z,9.8967
2023-04-08T11:00:22.093Z,9.8540
2023-04-08T11:01:23.146Z,10.0514
2023-04-08T11:02:24.168Z,10.1387
2023-04-08T11:03:25.232Z,10.0713
2023-04-08T11:04:26.354Z,9.8866
2023-04-08T11:05:27.254Z,10.0756
2023-04-08T11:06:28.173Z,10.4005
2023-04-08T11:07:29.047Z,9.9342
2023-04-08T11:08:29.958Z,9.9863
2023-04-08T11:09:30.859Z,10.7394
2023-04-08T11:10:31.696Z,10.6934
2023-04-08T11:11:32.525Z,10.6027
2023-04-08T11:12:33.365Z,10.5828
2023-04-08T11:13:34.296Z,10.8392
2023-04-08T11:14:35.112Z,10.8817
2023-04-08T11:15:35.973Z,11.2521
2023-04-08T11:16:36.983Z,10.9623
2023-04-08T11:17:37.857Z,10.9826
2023-04-08T11:18:38.752Z,11.0356
2023-04-08T11:19:39.560Z,11.5943
2023-04-08T11:20:40.383Z,11.4205
2023-04-08T11:21:41.200Z,11.3562
2023-04-08T11:22:42.014Z,11.2188
2023-04-08T11:23:42.849Z,11.1933
2023-04-08T11:24:43.614Z,11.2079
2023-04-08T11:25:44.632Z,10.9433
2023-04-08T11:26:45.455Z,10.9923
2023-04-08T11:27:46.319Z,10.7235
2023-04-08T11:28:47.153Z,10.7561
2023-04-08T11:29:47.934Z,11.0680
2023-04-08T11:30:48.714Z,11.2096
2023-04-08T11:31:49.549Z,11.1619
2023-04-08T11:32:50.456Z,11.1223
2023-04-08T11:33:51.591Z,10.3935
2023-04-08T11:34:52.741Z,10.5072
2023-04-08T11:35:53.518Z,10.8447
2023-04-08T11:36:54.380Z,11.2396
2023-04-08T11:37:55.207Z,11.4641
2023-04-08T11:38:56.287Z,11.5548
2023-04-08T11:39:57.112Z,11.4722
2023-04-08T11:40:57.972Z,11.4948
2023-04-08T11:41:58.763Z,11.9083
2023-04-08T11:42:59.631Z,11.6807
2023-04-08T11:44:00.516Z,11.5413
2023-04-08T11:45:01.407Z,11.7958
2023-04-08T11:46:02.257Z,11.9748
2023-04-08T11:47:03.100Z,11.7033
2023-04-08T11:48:04.903Z,11.8208
2023-04-08T11:49:05.792Z,11.5342
2023-04-08T11:50:06.641Z,11.3602
2023-04-08T11:51:07.442Z,11.5760
2023-04-08T11:52:08.209Z,11.6624
2023-04-08T11:53:09.008Z,11.5164
2023-04-08T11:54:09.839Z,11.4861
2023-04-08T11:55:10.613Z,11.6606
2023-04-08T11:56:11.419Z,12.0520
2023-04-08T11:57:12.208Z,11.8144
2023-04-08T11:58:13.040Z,11.9533
2023-04-08T11:59:13.870Z,11.7151
2023-04-08T12:00:14.730Z,11.7674
2023-04-08T12:01:15.477Z,11.9256
2023-04-08T12:02:16.374Z,11.7867
2023-04-08T12:03:17.329Z,12.0973
2023-04-08T12:04:18.252Z,12.2791
2023-04-08T12:05:19.076Z,11.9487
2023-04-08T12:06:19.870Z,11.7959
2023-04-08T12:07:20.704Z,11.5723
2023-04-08T12:08:21.616Z,11.5335
2023-04-08T12:09:22.461Z,11.6313
2023-04-08T12:10:23.322Z,11.1477
2023-04-08T12:11:24.107Z,11.2757
2023-04-08T12:12:25.041Z,11.3804
2023-04-08T12:13:26.054Z,11.2120
2023-04-08T12:14:28.388Z,11.2647
2023-04-08T12:15:27.786Z,11.1559
2023-04-08T12:16:28.665Z,11.0118
2023-04-08T12:17:29.641Z,10.9548
2023-04-08T12:18:30.434Z,10.7944
2023-04-08T12:19:33.534Z,11.0124
2023-04-08T12:20:32.467Z,10.8887
2023-04-08T12:21:33.277Z,10.7817
2023-04-08T12:22:34.120Z,10.6831
2023-04-08T12:23:35.149Z,10.5920
2023-04-08T12:24:35.917Z,10.3056
2023-04-08T12:25:36.701Z,10.1147
2023-04-08T12:26:37.585Z,10.1552
2023-04-08T12:27:38.448Z,10.0250
2023-04-08T12:28:39.348Z,10.0015
2023-04-08T12:29:40.133Z,10.1128
2023-04-08T12:30:41.019Z,10.0971
2023-04-08T12:31:41.887Z,10.1629
2023-04-08T12:32:42.750Z,9.9991
2023-04-08T12:33:43.692Z,9.9474
2023-04-08T12:34:44.579Z,9.9805
2023-04-08T12:35:45.524Z,9.8743